BGKK

Details ICAO BGKK
Name Kulusuk
Region Greenland
Timezone America/Godthab (UTC-3.0)
Plans Departing 67
Arriving 65
Stats Elevation 114 ft / 35 m (AMSL)
Location 65.573608° -37.123608°
Runways 1
Magnetic Variation 22.321° W
Sunrise 2017-12-12 12:40:44 UTC / 2017-12-12 09:40:44 Local
Sunset 2017-12-12 16:06:40 UTC / 2017-12-12 13:06:40 Local
Advertisement - Login to hide

Runways

ID Width Length Bearing (true) Bearing (mag) Surface Threshold Offset Overrun Length
11 98 ft / 30 m 3,956 ft / 1,206 m 83.99° 106.31° Gravel 0 ft / 0 m 0 ft / 0 m
29 98 ft / 30 m 3,956 ft / 1,206 m 264.01° 286.33° Gravel 0 ft / 0 m 0 ft / 0 m

Map

Weather


0- 5 10 15 20 25 30 35+ Temperature / ° C

Clouds and Precipitation
Forecast for 2017-12-12 12:00 UTC. Updated 35 minutes ago

Ground ~20,000 ft ~40,000 ft Winds

METAR

BGKK 120650Z AUTO 07035G51KT 9999NDV -SHSN BKN039/// BKN092/// M01/M08 Q0974

TAF

Not found
Warning: Do not use this data for real-world aviation or navigation. No guarantee of current accuracy is given.